createdAt,value
2018-03-04T00:02:19.481Z,97397.50
2018-03-04T00:04:51.185Z,97401.44
2018-03-04T00:07:23.269Z,97406.98
2018-03-04T00:09:54.832Z,97404.22
2018-03-04T00:12:25.953Z,97398.07
2018-03-04T00:14:57.318Z,97402.51
2018-03-04T00:17:28.861Z,97392.73
2018-03-04T00:20:00.049Z,97391.36
2018-03-04T00:22:39.722Z,97387.67
2018-03-04T00:25:11.273Z,97389.85
2018-03-04T00:27:43.242Z,97392.65
2018-03-04T00:30:15.154Z,97395.09
2018-03-04T00:32:47.280Z,97389.44
2018-03-04T00:35:18.393Z,97388.30
2018-03-04T00:37:50.068Z,97389.81
2018-03-04T00:40:23.827Z,97394.06
2018-03-04T00:42:55.429Z,97395.32
2018-03-04T00:45:27.781Z,97389.75
2018-03-04T00:47:59.492Z,97378.64
2018-03-04T00:50:31.012Z,97387.30
2018-03-04T00:53:02.454Z,97380.95
2018-03-04T00:55:34.550Z,97385.19
2018-03-04T00:58:06.661Z,97379.81
2018-03-04T01:00:38.851Z,97386.22
2018-03-04T01:03:10.960Z,97381.03
2018-03-04T01:05:42.898Z,97380.11
2018-03-04T01:08:15.033Z,97374.28
2018-03-04T01:10:47.425Z,97381.30
2018-03-04T01:13:19.751Z,97375.50
2018-03-04T01:15:51.474Z,97376.53
2018-03-04T01:18:22.898Z,97376.80
2018-03-04T01:20:54.433Z,97370.51
2018-03-04T01:23:26.608Z,97369.67
2018-03-04T01:25:57.740Z,97373.02
2018-03-04T01:28:29.472Z,97371.75
2018-03-04T01:31:02.101Z,97372.62
2018-03-04T01:33:34.399Z,97364.24
2018-03-04T01:36:06.589Z,97376.31
2018-03-04T01:38:38.389Z,97368.81
2018-03-04T01:41:10.490Z,97374.94
2018-03-04T01:43:42.402Z,97366.22
2018-03-04T01:46:13.912Z,97368.91
2018-03-04T01:48:46.040Z,97370.20
2018-03-04T01:51:17.759Z,97370.00
2018-03-04T01:53:49.328Z,97377.77
2018-03-04T01:56:20.992Z,97374.78
2018-03-04T01:58:58.662Z,97375.31
2018-03-04T02:01:30.572Z,97369.55
2018-03-04T02:04:02.057Z,97360.38
2018-03-04T02:06:33.629Z,97369.16
2018-03-04T02:09:05.781Z,97375.65
2018-03-04T02:11:37.758Z,97375.62
2018-03-04T02:14:09.813Z,97367.47
2018-03-04T02:16:41.373Z,97366.34
2018-03-04T02:19:13.401Z,97368.58
2018-03-04T02:21:45.415Z,97368.53
2018-03-04T02:24:17.519Z,97371.47
2018-03-04T02:26:49.356Z,97373.27
2018-03-04T02:29:20.604Z,97364.05
2018-03-04T02:31:53.110Z,97363.86
2018-03-04T02:34:25.096Z,97368.28
2018-03-04T02:36:57.003Z,97363.13
2018-03-04T02:39:29.028Z,97360.80
2018-03-04T02:42:11.486Z,97363.64
2018-03-04T02:44:43.827Z,97355.28
2018-03-04T02:47:15.730Z,97356.31
2018-03-04T02:49:47.766Z,97349.53
2018-03-04T02:52:20.548Z,97351.88
2018-03-04T02:54:52.384Z,97345.92
2018-03-04T02:57:24.107Z,97346.16
2018-03-04T02:59:56.278Z,97347.16
2018-03-04T03:02:28.078Z,97341.86
2018-03-04T03:04:59.715Z,97337.25
2018-03-04T03:07:31.430Z,97348.45
2018-03-04T03:10:04.764Z,97346.26
2018-03-04T03:12:36.396Z,97350.98
2018-03-04T03:15:07.867Z,97350.03
2018-03-04T03:17:39.749Z,97343.71
2018-03-04T03:20:11.363Z,97341.45
2018-03-04T03:22:43.046Z,97337.36
2018-03-04T03:25:15.033Z,97329.91
2018-03-04T03:27:46.685Z,97334.60
2018-03-04T03:30:18.214Z,97336.02
2018-03-04T03:32:50.250Z,97325.94
2018-03-04T03:35:22.466Z,97328.98
2018-03-04T03:37:54.269Z,97319.86
2018-03-04T03:40:26.009Z,97328.16
2018-03-04T03:42:58.249Z,97331.45
2018-03-04T03:45:30.105Z,97332.17
2018-03-04T03:48:01.829Z,97331.26
2018-03-04T03:50:33.681Z,97325.60
2018-03-04T03:53:08.585Z,97327.77
2018-03-04T03:55:40.207Z,97331.04
2018-03-04T03:58:12.375Z,97322.54
2018-03-04T04:00:44.321Z,97318.80
2018-03-04T04:03:15.894Z,97319.73
2018-03-04T04:05:47.474Z,97319.76
2018-03-04T04:08:19.578Z,97312.89
2018-03-04T04:10:51.313Z,97307.51
2018-03-04T04:13:23.475Z,97316.27
2018-03-04T04:15:54.929Z,97313.58
2018-03-04T04:18:26.476Z,97309.69
2018-03-04T04:20:59.010Z,97314.22
2018-03-04T04:23:30.109Z,97306.72
2018-03-04T04:26:03.552Z,97310.07
2018-03-04T04:28:35.098Z,97306.99
2018-03-04T04:31:06.469Z,97307.41
2018-03-04T04:33:38.091Z,97303.53
2018-03-04T04:36:09.688Z,97303.94
2018-03-04T04:38:40.801Z,97307.33
2018-03-04T04:41:12.405Z,97296.94
2018-03-04T04:43:44.488Z,97300.16
2018-03-04T04:46:17.401Z,97290.50
2018-03-04T04:48:48.912Z,97294.83
2018-03-04T04:51:21.046Z,97292.30
2018-03-04T04:53:52.157Z,97295.36
2018-03-04T04:56:23.924Z,97291.89
2018-03-04T04:58:54.933Z,97298.19
2018-03-04T05:01:26.919Z,97290.67
2018-03-04T05:03:58.212Z,97293.06
2018-03-04T05:06:30.025Z,97294.61
2018-03-04T05:09:01.548Z,97292.81
2018-03-04T05:11:33.627Z,97296.02
2018-03-04T05:14:05.307Z,97293.92
2018-03-04T05:16:36.685Z,97294.98
2018-03-04T05:19:08.522Z,97290.04
2018-03-04T05:21:40.062Z,97289.42
2018-03-04T05:24:11.452Z,97287.20
2018-03-04T05:26:43.197Z,97287.48
2018-03-04T05:29:15.280Z,97283.93
2018-03-04T05:31:46.997Z,97287.95
2018-03-04T05:34:18.647Z,97289.16
2018-03-04T05:36:50.841Z,97291.73
2018-03-04T05:39:22.728Z,97291.05
2018-03-04T05:41:54.324Z,97288.34
2018-03-04T05:44:26.300Z,97291.25
2018-03-04T05:46:58.445Z,97286.07
2018-03-04T05:49:30.315Z,97280.08
2018-03-04T05:52:06.298Z,97280.92
2018-03-04T05:54:38.517Z,97280.77
2018-03-04T05:57:11.213Z,97279.06
2018-03-04T05:59:42.746Z,97269.55
2018-03-04T06:02:13.873Z,97266.84
2018-03-04T06:04:45.940Z,97272.87
2018-03-04T06:07:17.872Z,97274.73
2018-03-04T06:09:49.792Z,97279.16
2018-03-04T06:12:21.609Z,97276.45
2018-03-04T06:14:53.860Z,97275.19
2018-03-04T06:17:25.409Z,97272.42
2018-03-04T06:19:57.420Z,97273.47
2018-03-04T06:22:29.791Z,97273.94
2018-03-04T06:25:01.707Z,97285.60
2018-03-04T06:27:33.584Z,97278.20
2018-03-04T06:30:09.690Z,97277.56
2018-03-04T06:32:41.915Z,97282.45
2018-03-04T06:35:13.950Z,97282.84
2018-03-04T06:37:45.730Z,97280.69
2018-03-04T06:40:18.505Z,97285.59
2018-03-04T06:42:51.818Z,97274.03
2018-03-04T06:45:24.013Z,97278.20
2018-03-04T06:47:55.640Z,97271.86
2018-03-04T06:50:27.730Z,97274.53
2018-03-04T06:53:00.330Z,97281.85
2018-03-04T06:55:31.832Z,97282.31
2018-03-04T06:58:03.247Z,97278.02
2018-03-04T07:00:34.624Z,97283.92
2018-03-04T07:03:08.086Z,97282.57
2018-03-04T07:05:49.896Z,97274.33
2018-03-04T07:08:21.504Z,97280.97
2018-03-04T07:11:00.607Z,97279.84
2018-03-04T07:13:32.792Z,97294.16
2018-03-04T07:16:06.049Z,97283.66
2018-03-04T07:18:37.474Z,97288.05
2018-03-04T07:21:09.581Z,97291.77
2018-03-04T07:23:41.814Z,97293.44
2018-03-04T07:26:15.839Z,97285.30
2018-03-04T07:28:47.568Z,97293.78
2018-03-04T07:31:19.844Z,97288.42
2018-03-04T07:33:51.865Z,97287.25
2018-03-04T07:36:24.053Z,97279.21
2018-03-04T07:38:55.564Z,97279.02
2018-03-04T07:41:27.625Z,97270.63
2018-03-04T07:44:04.295Z,97256.42
2018-03-04T07:46:35.641Z,97273.80
2018-03-04T07:49:07.385Z,97277.08
2018-03-04T07:51:38.856Z,97276.34
2018-03-04T07:54:10.103Z,97274.27
2018-03-04T07:56:41.407Z,97280.23
2018-03-04T07:59:13.410Z,97278.95
2018-03-04T08:01:47.880Z,97274.83
2018-03-04T08:04:19.609Z,97264.75
2018-03-04T08:06:50.856Z,97268.92
2018-03-04T08:09:24.670Z,97267.07
2018-03-04T08:11:56.130Z,97269.42
2018-03-04T08:14:27.951Z,97271.27
2018-03-04T08:16:59.650Z,97266.48
2018-03-04T08:19:31.124Z,97273.46
2018-03-04T08:22:03.170Z,97273.37
2018-03-04T08:24:40.641Z,97270.61
2018-03-04T08:29:24.365Z,97265.10
2018-03-04T08:31:55.186Z,97268.72
2018-03-04T08:34:26.926Z,97272.24
2018-03-04T08:36:58.218Z,97276.16
2018-03-04T08:39:29.085Z,97267.56
2018-03-04T08:42:00.895Z,97264.75
2018-03-04T08:44:31.927Z,97254.48
2018-03-04T08:47:04.692Z,97262.29
2018-03-04T08:49:36.585Z,97256.25
2018-03-04T08:52:08.031Z,97270.84
2018-03-04T08:54:39.149Z,97273.61
2018-03-04T08:57:10.873Z,97268.34
2018-03-04T08:59:42.111Z,97265.98
2018-03-04T09:02:13.467Z,97266.84
2018-03-04T09:04:44.266Z,97270.84
2018-03-04T09:07:15.832Z,97266.25
2018-03-04T09:09:46.768Z,97272.02
2018-03-04T09:12:18.220Z,97272.97
2018-03-04T09:14:49.413Z,97266.61
2018-03-04T09:17:23.428Z,97272.71
2018-03-04T09:19:54.122Z,97265.58
2018-03-04T09:22:28.176Z,97272.90
2018-03-04T09:24:59.443Z,97272.97
2018-03-04T09:27:30.289Z,97271.10
2018-03-04T09:30:03.435Z,97266.05
2018-03-04T09:32:34.244Z,97269.62
2018-03-04T09:35:09.241Z,97267.18
2018-03-04T09:40:15.112Z,97262.05
2018-03-04T09:42:47.362Z,97257.25
2018-03-04T09:48:00.364Z,97259.31
2018-03-04T09:50:31.176Z,97259.95
2018-03-04T09:53:02.309Z,97260.47
2018-03-04T09:55:33.080Z,97258.03
2018-03-04T09:58:03.906Z,97250.54
2018-03-04T10:00:34.815Z,97247.93
2018-03-04T10:03:06.704Z,97250.09
2018-03-04T10:05:37.504Z,97244.78
2018-03-04T10:08:09.288Z,97247.81
2018-03-04T10:10:40.824Z,97248.70
2018-03-04T10:13:11.668Z,97243.36
2018-03-04T10:15:42.476Z,97246.16
2018-03-04T10:18:13.822Z,97254.36
2018-03-04T10:20:44.918Z,97242.48
2018-03-04T10:23:16.139Z,97242.09
2018-03-04T10:25:46.937Z,97242.89
2018-03-04T10:28:18.021Z,97235.95
2018-03-04T10:30:49.400Z,97234.06
2018-03-04T10:33:20.237Z,97231.45
2018-03-04T10:35:51.381Z,97232.17
2018-03-04T10:38:22.194Z,97234.98
2018-03-04T10:40:52.969Z,97244.53
2018-03-04T10:43:24.224Z,97228.56
2018-03-04T10:45:55.889Z,97225.63
2018-03-04T10:48:27.024Z,97228.23
2018-03-04T10:50:57.853Z,97232.23
2018-03-04T10:53:29.153Z,97232.67
2018-03-04T10:56:02.789Z,97238.05
2018-03-04T10:58:34.045Z,97242.06
2018-03-04T11:01:10.655Z,97247.58
2018-03-04T11:03:41.800Z,97243.44
2018-03-04T11:06:13.074Z,97232.88
2018-03-04T11:08:43.894Z,97223.84
2018-03-04T11:11:15.005Z,97211.31
2018-03-04T11:13:45.785Z,97214.81
2018-03-04T11:16:16.669Z,97209.67
2018-03-04T11:18:47.845Z,97204.34
2018-03-04T11:21:18.626Z,97208.40
2018-03-04T11:23:51.885Z,97213.24
2018-03-04T11:26:25.084Z,97206.16
2018-03-04T11:29:11.413Z,97210.29
2018-03-04T11:31:42.653Z,97217.73
2018-03-04T11:34:13.449Z,97215.16
2018-03-04T11:36:45.573Z,97216.47
2018-03-04T11:39:17.142Z,97211.13
2018-03-04T11:41:48.037Z,97208.80
2018-03-04T11:44:18.857Z,97205.55
2018-03-04T11:46:50.568Z,97203.16
2018-03-04T11:49:21.453Z,97201.04
2018-03-04T11:51:52.517Z,97197.55
2018-03-04T11:54:24.376Z,97185.38
2018-03-04T11:56:55.193Z,97187.80
2018-03-04T11:59:30.224Z,97193.78
2018-03-04T12:02:02.573Z,97178.61
2018-03-04T12:04:33.345Z,97183.89
2018-03-04T12:07:05.729Z,97187.82
2018-03-04T12:09:36.824Z,97182.41
2018-03-04T12:12:07.743Z,97177.88
2018-03-04T12:14:38.830Z,97176.98
2018-03-04T12:17:09.678Z,97173.08
2018-03-04T12:19:41.025Z,97169.70
2018-03-04T12:22:12.478Z,97181.01
2018-03-04T12:24:43.309Z,97169.12
2018-03-04T12:27:14.415Z,97175.83
2018-03-04T12:29:46.884Z,97160.34
2018-03-04T12:32:19.216Z,97138.91
2018-03-04T12:34:50.907Z,97132.67
2018-03-04T12:37:21.769Z,97127.78
2018-03-04T12:39:52.580Z,97132.06
2018-03-04T12:42:23.629Z,97124.97
2018-03-04T12:44:55.419Z,97128.80
2018-03-04T12:47:26.507Z,97132.39
2018-03-04T12:49:57.768Z,97129.97
2018-03-04T12:52:28.636Z,97132.87
2018-03-04T12:55:00.380Z,97139.57
2018-03-04T12:57:31.687Z,97140.08
2018-03-04T13:00:02.745Z,97136.05
2018-03-04T13:02:33.807Z,97129.70
2018-03-04T13:05:05.505Z,97126.79
2018-03-04T13:07:36.341Z,97131.81
2018-03-04T13:10:11.327Z,97133.70
2018-03-04T13:12:42.291Z,97133.52
2018-03-04T13:15:20.371Z,97148.25
2018-03-04T13:17:51.290Z,97138.05
2018-03-04T13:20:23.695Z,97135.62
2018-03-04T13:22:54.782Z,97133.81
2018-03-04T13:25:25.669Z,97133.99
2018-03-04T13:27:56.929Z,97139.81
2018-03-04T13:30:27.752Z,97133.21
2018-03-04T13:32:59.590Z,97126.86
2018-03-04T13:35:31.256Z,97126.70
2018-03-04T13:38:03.784Z,97117.61
2018-03-04T13:40:35.023Z,97118.36
2018-03-04T13:43:06.123Z,97116.77
2018-03-04T13:45:36.965Z,97117.81
2018-03-04T13:48:08.027Z,97113.53
2018-03-04T13:50:38.871Z,97099.75
2018-03-04T13:53:09.666Z,97100.93
2018-03-04T13:55:41.730Z,97097.23
2018-03-04T13:58:16.473Z,97100.34
2018-03-04T14:00:48.954Z,97099.47
2018-03-04T14:03:20.808Z,97092.15
2018-03-04T14:05:51.593Z,97085.01
2018-03-04T14:08:22.702Z,97082.23
2018-03-04T14:10:53.533Z,97086.83
2018-03-04T14:13:24.669Z,97085.56
2018-03-04T14:15:55.533Z,97082.64
2018-03-04T14:18:26.389Z,97078.80
2018-03-04T14:20:57.504Z,97082.84
2018-03-04T14:23:28.330Z,97079.38
2018-03-04T14:25:59.286Z,97078.21
2018-03-04T14:28:32.792Z,97075.44
2018-03-04T14:31:03.597Z,97074.48
2018-03-04T14:33:34.438Z,97064.06
2018-03-04T14:36:05.704Z,97055.24
2018-03-04T14:38:36.924Z,97066.41
2018-03-04T14:41:08.633Z,97062.69
2018-03-04T14:43:39.384Z,97059.10
2018-03-04T14:46:10.201Z,97056.88
2018-03-04T14:48:41.275Z,97053.16
2018-03-04T14:51:12.169Z,97050.61
2018-03-04T14:53:42.953Z,97041.45
2018-03-04T14:56:14.113Z,97038.01
2018-03-04T14:58:45.236Z,97037.06
2018-03-04T15:01:16.001Z,97030.61
2018-03-04T15:03:47.957Z,97029.05
2018-03-04T15:06:18.793Z,97028.23
2018-03-04T15:08:49.589Z,97025.46
2018-03-04T15:11:20.441Z,97030.75
2018-03-04T15:13:51.532Z,97027.36
2018-03-04T15:16:22.346Z,97025.41
2018-03-04T15:18:54.207Z,97028.37
2018-03-04T15:21:25.453Z,97024.17
2018-03-04T15:23:56.330Z,97024.08
2018-03-04T15:26:27.746Z,97024.48
2018-03-04T15:28:58.877Z,97021.63
2018-03-04T15:31:29.721Z,97020.98
2018-03-04T15:34:00.622Z,97019.28
2018-03-04T15:36:32.352Z,97020.83
2018-03-04T15:39:03.196Z,97020.34
2018-03-04T15:41:34.113Z,97017.27
2018-03-04T15:44:05.070Z,97012.97
2018-03-04T15:46:36.065Z,97016.27
2018-03-04T15:49:06.929Z,97010.25
2018-03-04T15:51:38.269Z,97004.36
2018-03-04T15:54:09.061Z,96999.13
2018-03-04T15:56:40.332Z,97002.70
2018-03-04T15:59:11.105Z,96996.66
2018-03-04T16:01:41.885Z,97001.89
2018-03-04T16:04:13.113Z,97001.06
2018-03-04T16:06:43.982Z,96996.89
2018-03-04T16:09:14.828Z,97006.95
2018-03-04T16:11:46.358Z,97000.55
2018-03-04T16:14:17.152Z,96990.58
2018-03-04T16:16:49.293Z,96996.87
2018-03-04T16:19:20.122Z,96997.36
2018-03-04T16:21:51.014Z,96997.03
2018-03-04T16:24:22.392Z,97001.56
2018-03-04T16:26:53.329Z,96998.89
2018-03-04T16:29:24.260Z,96994.89
2018-03-04T16:31:55.405Z,96995.35
2018-03-04T16:34:26.209Z,97001.51
2018-03-04T16:36:57.054Z,96996.33
2018-03-04T16:39:28.285Z,96992.83
2018-03-04T16:41:59.288Z,96994.34
2018-03-04T16:44:36.597Z,96992.35
2018-03-04T16:47:07.809Z,96984.44
2018-03-04T16:49:38.661Z,96985.59
2018-03-04T16:52:09.861Z,96984.40
2018-03-04T16:54:40.748Z,96991.00
2018-03-04T16:57:12.144Z,96981.92
2018-03-04T16:59:43.054Z,96979.73
2018-03-04T17:02:15.181Z,96981.79
2018-03-04T17:04:47.869Z,96975.06
2018-03-04T17:07:18.768Z,96981.63
2018-03-04T17:09:50.095Z,96974.40
2018-03-04T17:12:21.310Z,96979.93
2018-03-04T17:14:52.117Z,96975.48
2018-03-04T17:17:23.188Z,96968.53
2018-03-04T17:19:54.001Z,96964.99
2018-03-04T17:22:24.804Z,96962.83
2018-03-04T17:24:57.125Z,96963.10
2018-03-04T17:27:27.930Z,96955.13
2018-03-04T17:29:59.370Z,96950.58
2018-03-04T17:32:30.533Z,96945.33
2018-03-04T17:35:01.436Z,96934.28
2018-03-04T17:37:32.260Z,96931.80
2018-03-04T17:40:03.724Z,96934.34
2018-03-04T17:42:34.609Z,96938.08
2018-03-04T17:45:06.995Z,96940.48
2018-03-04T17:47:37.892Z,96945.99
2018-03-04T17:50:08.009Z,96937.74
2018-03-04T17:52:39.153Z,96934.63
2018-03-04T17:55:10.216Z,96927.58
2018-03-04T17:57:41.060Z,96927.00
2018-03-04T18:00:13.174Z,96916.92
2018-03-04T18:02:44.027Z,96924.13
2018-03-04T18:05:14.860Z,96915.30
2018-03-04T18:07:46.015Z,96913.84
2018-03-04T18:10:16.882Z,96910.48
2018-03-04T18:12:47.650Z,96919.22
2018-03-04T18:15:18.837Z,96912.86
2018-03-04T18:17:49.653Z,96909.78
2018-03-04T18:20:20.454Z,96917.56
2018-03-04T18:22:51.685Z,96919.55
2018-03-04T18:25:22.521Z,96925.17
2018-03-04T18:27:53.280Z,96927.27
2018-03-04T18:30:24.421Z,96921.09
2018-03-04T18:32:55.296Z,96921.02
2018-03-04T18:35:26.146Z,96914.53
2018-03-04T18:37:57.237Z,96925.56
2018-03-04T18:40:28.113Z,96933.86
2018-03-04T18:42:58.996Z,96936.02
2018-03-04T18:45:30.202Z,96936.73
2018-03-04T18:48:01.145Z,96934.17
2018-03-04T18:50:32.737Z,96930.33
2018-03-04T18:53:03.556Z,96925.66
2018-03-04T18:55:34.403Z,96924.75
2018-03-04T18:58:05.704Z,96929.07
2018-03-04T19:00:36.733Z,96924.91
2018-03-04T19:03:08.026Z,96924.48
2018-03-04T19:05:39.117Z,96929.58
2018-03-04T19:08:10.059Z,96924.53
2018-03-04T19:10:40.845Z,96925.14
2018-03-04T19:13:11.932Z,96929.73
2018-03-04T19:15:42.793Z,96923.89
2018-03-04T19:18:13.634Z,96919.97
2018-03-04T19:20:44.765Z,96917.73
2018-03-04T19:23:15.607Z,96914.50
2018-03-04T19:25:47.065Z,96912.28
2018-03-04T19:28:18.029Z,96914.66
2018-03-04T19:30:48.869Z,96911.41
2018-03-04T19:33:19.985Z,96916.73
2018-03-04T19:35:50.821Z,96917.20
2018-03-04T19:38:22.230Z,96920.59
2018-03-04T19:40:53.173Z,96914.70
2018-03-04T19:43:24.474Z,96915.33
2018-03-04T19:45:56.149Z,96911.70
2018-03-04T19:48:27.197Z,96912.64
2018-03-04T19:50:58.014Z,96907.71
2018-03-04T19:53:29.162Z,96910.04
2018-03-04T19:56:00.011Z,96912.97
2018-03-04T19:58:31.002Z,96905.72
2018-03-04T20:01:04.039Z,96901.16
2018-03-04T20:03:34.971Z,96901.14
2018-03-04T20:06:07.063Z,96898.97
2018-03-04T20:08:38.186Z,96893.88
2018-03-04T20:11:09.917Z,96894.05
2018-03-04T20:13:40.813Z,96894.83
2018-03-04T20:16:12.169Z,96884.32
2018-03-04T20:18:42.969Z,96883.41
2018-03-04T20:21:14.104Z,96876.11
2018-03-04T20:23:45.513Z,96870.39
2018-03-04T20:26:16.504Z,96863.09
2018-03-04T20:28:48.199Z,96867.16
2018-03-04T20:31:19.069Z,96868.69
2018-03-04T20:33:49.954Z,96859.04
2018-03-04T20:36:21.107Z,96864.34
2018-03-04T20:38:53.220Z,96862.05
2018-03-04T20:41:25.084Z,96870.14
2018-03-04T20:43:56.333Z,96865.25
2018-03-04T20:46:28.113Z,96866.90
2018-03-04T20:49:00.205Z,96867.80
2018-03-04T20:51:31.659Z,96877.16
2018-03-04T20:54:04.441Z,96877.70
2018-03-04T20:56:35.617Z,96871.78
2018-03-04T20:59:06.478Z,96876.45
2018-03-04T21:01:38.338Z,96879.08
2018-03-04T21:04:09.523Z,96878.03
2018-03-04T21:06:40.365Z,96884.63
2018-03-04T21:09:11.196Z,96887.80
2018-03-04T21:11:42.334Z,96881.14
2018-03-04T21:14:13.613Z,96877.41
2018-03-04T21:16:44.453Z,96877.21
2018-03-04T21:19:15.603Z,96874.49
2018-03-04T21:21:46.561Z,96876.45
2018-03-04T21:24:18.069Z,96876.45
2018-03-04T21:26:50.148Z,96888.13
2018-03-04T21:29:21.666Z,96874.57
2018-03-04T21:31:52.553Z,96875.55
2018-03-04T21:34:24.237Z,96866.95
2018-03-04T21:36:55.896Z,96877.77
2018-03-04T21:39:26.630Z,96882.33
2018-03-04T21:41:58.257Z,96894.14
2018-03-04T21:44:29.755Z,96897.19
2018-03-04T21:47:01.562Z,96890.21
2018-03-04T21:49:32.394Z,96899.63
2018-03-04T21:52:03.266Z,96895.86
2018-03-04T21:54:34.348Z,96885.70
2018-03-04T21:57:05.203Z,96872.16
2018-03-04T21:59:36.252Z,96878.23
2018-03-04T22:02:08.925Z,96879.34
2018-03-04T22:04:40.072Z,96875.61
2018-03-04T22:07:12.434Z,96862.63
2018-03-04T22:09:43.312Z,96866.05
2018-03-04T22:12:14.109Z,96876.03
2018-03-04T22:14:45.218Z,96881.38
2018-03-04T22:17:16.476Z,96881.01
2018-03-04T22:19:47.241Z,96886.45
2018-03-04T22:22:18.386Z,96887.98
2018-03-04T22:24:49.112Z,96881.20
2018-03-04T22:27:19.894Z,96877.80
2018-03-04T22:29:52.077Z,96873.92
2018-03-04T22:32:22.868Z,96872.06
2018-03-04T22:34:54.018Z,96879.85
2018-03-04T22:37:25.489Z,96877.69
2018-03-04T22:39:56.620Z,96874.54
2018-03-04T22:42:27.441Z,96880.22
2018-03-04T22:44:59.294Z,96885.84
2018-03-04T22:47:30.325Z,96886.02
2018-03-04T22:50:01.085Z,96887.16
2018-03-04T22:52:31.881Z,96895.05
2018-03-04T22:55:03.186Z,96899.84
2018-03-04T22:57:34.070Z,96901.35
2018-03-04T23:00:08.048Z,96895.95
2018-03-04T23:02:38.944Z,96890.60
2018-03-04T23:05:09.804Z,96895.06
2018-03-04T23:07:41.736Z,96895.38
2018-03-04T23:10:12.701Z,96887.92
2018-03-04T23:12:50.444Z,96890.20
2018-03-04T23:15:22.852Z,96888.06
2018-03-04T23:17:54.092Z,96894.86
2018-03-04T23:20:26.461Z,96889.39
2018-03-04T23:22:58.113Z,96884.27
2018-03-04T23:25:28.918Z,96890.63
2018-03-04T23:28:00.466Z,96891.47
2018-03-04T23:30:31.294Z,96893.75
2018-03-04T23:33:02.981Z,96887.93
2018-03-04T23:35:34.316Z,96884.97
2018-03-04T23:38:07.450Z,96878.52
2018-03-04T23:40:38.273Z,96873.77
2018-03-04T23:43:09.452Z,96872.61
2018-03-04T23:45:40.284Z,96869.36
2018-03-04T23:48:11.505Z,96868.27
2018-03-04T23:50:42.302Z,96857.42
2018-03-04T23:53:13.085Z,96861.09
2018-03-04T23:55:44.233Z,96843.13
2018-03-04T23:58:15.087Z,96840.34
